This is the latest recevied weather packets stored in our database for station/object LRSV. If no packets are shown the sender has not sent any weather packets the latest 10 day(s).
| Time | Temp. | Humidity | Pressure | Rain* | Wind** | Luminosity | Snow |
|---|---|---|---|---|---|---|---|
| 1778038400 | 11.11° C | 62% | 1012 hPa | - | - | - | - |
| 1778037500 | 12.78° C | 51% | 1012 hPa | - | - | - | - |
| 1778036600 | 12.78° C | 51% | 1012 hPa | - | - | - | - |
| 1778035700 | 11.11° C | 62% | 1012 hPa | - | - | - | - |
| 1778034800 | 11.11° C | 62% | 1012 hPa | - | - | - | - |
| 1778033900 | 12.22° C | 58% | 1012 hPa | - | - | - | - |
| 1778033000 | 12.22° C | 58% | 1012 hPa | - | - | - | - |
| 1778032100 | 12.22° C | 63% | 1012 hPa | - | - | - | - |
| 1778031200 | 12.22° C | 63% | 1012 hPa | - | - | - | - |
| 1778030301 | 12.22° C | 63% | 1012 hPa | - | - | - | - |
| 1778029400 | 12.22° C | 63% | 1012 hPa | - | - | - | - |
| 1778028500 | 12.78° C | 59% | 1012 hPa | - | - | - | - |
| 1778027677 | 12.78° C | 59% | 1012 hPa | - | - | - | - |
| 1778026701 | 12.78° C | 63% | 1012 hPa | - | - | - | - |
| 1778025801 | 12.78° C | 63% | 1012 hPa | - | - | - | - |
| 1778024900 | 13.89° C | 55% | 1012 hPa | - | - | - | - |
| 1778024000 | 13.89° C | 55% | 1012 hPa | - | - | - | - |
| 1778023100 | 13.89° C | 59% | 1012 hPa | - | - | - | - |
| 1778022200 | 13.89° C | 59% | 1012 hPa | - | - | - | - |
| 1778021300 | 12.78° C | 63% | 1012 hPa | - | - | - | - |
| 1778020400 | 12.78° C | 63% | 1012 hPa | - | - | - | - |
| 1778019497 | 13.89° C | 59% | 1012 hPa | - | - | - | - |
| 1778018600 | 13.89° C | 59% | 1012 hPa | - | - | - | - |
| 1778017701 | 13.89° C | 55% | 1012 hPa | - | - | - | - |
| 1778016800 | 13.89° C | 55% | 1012 hPa | - | - | - | - |
* Rain since midnight (hover to see other rain measurements)
** Current wind speed in m/s (hover to see current wind gust speed)